sensor_id;sensor_type;location;lat;lon;timestamp;P1;durP1;ratioP1;P2;durP2;ratioP2
7205;SDS011;3644;53.480;10.004;2022-10-16T00:00:42;8.00;;;3.27;;
7205;SDS011;3644;53.480;10.004;2022-10-16T00:03:08;3.47;;;3.10;;
7205;SDS011;3644;53.480;10.004;2022-10-16T00:05:38;6.30;;;3.77;;
7205;SDS011;3644;53.480;10.004;2022-10-16T00:08:08;6.50;;;3.67;;
7205;SDS011;3644;53.480;10.004;2022-10-16T00:10:35;5.90;;;3.30;;
7205;SDS011;3644;53.480;10.004;2022-10-16T00:13:00;3.10;;;2.80;;
7205;SDS011;3644;53.480;10.004;2022-10-16T00:15:26;4.20;;;2.10;;
7205;SDS011;3644;53.480;10.004;2022-10-16T00:17:52;3.83;;;2.53;;
7205;SDS011;3644;53.480;10.004;2022-10-16T00:20:17;2.40;;;2.20;;
7205;SDS011;3644;53.480;10.004;2022-10-16T00:22:43;6.03;;;2.27;;
7205;SDS011;3644;53.480;10.004;2022-10-16T00:25:08;2.90;;;2.70;;
7205;SDS011;3644;53.480;10.004;2022-10-16T00:27:34;2.80;;;1.83;;
7205;SDS011;3644;53.480;10.004;2022-10-16T00:30:00;3.10;;;2.57;;
7205;SDS011;3644;53.480;10.004;2022-10-16T00:32:26;2.40;;;2.20;;
7205;SDS011;3644;53.480;10.004;2022-10-16T00:34:51;3.83;;;2.67;;
7205;SDS011;3644;53.480;10.004;2022-10-16T00:37:19;3.53;;;2.30;;
7205;SDS011;3644;53.480;10.004;2022-10-16T00:39:45;2.93;;;2.20;;
7205;SDS011;3644;53.480;10.004;2022-10-16T00:42:17;2.60;;;2.13;;
7205;SDS011;3644;53.480;10.004;2022-10-16T00:44:48;2.27;;;2.07;;
7205;SDS011;3644;53.480;10.004;2022-10-16T00:47:19;4.03;;;2.50;;
7205;SDS011;3644;53.480;10.004;2022-10-16T00:49:49;3.97;;;2.50;;
7205;SDS011;3644;53.480;10.004;2022-10-16T00:52:18;2.63;;;2.20;;
7205;SDS011;3644;53.480;10.004;2022-10-16T00:54:44;7.13;;;2.47;;
7205;SDS011;3644;53.480;10.004;2022-10-16T00:57:11;3.37;;;2.40;;
7205;SDS011;3644;53.480;10.004;2022-10-16T00:59:38;6.00;;;2.70;;
7205;SDS011;3644;53.480;10.004;2022-10-16T01:02:07;4.53;;;2.60;;
7205;SDS011;3644;53.480;10.004;2022-10-16T01:04:35;3.80;;;3.03;;
7205;SDS011;3644;53.480;10.004;2022-10-16T01:12:52;9.20;;;3.63;;
7205;SDS011;3644;53.480;10.004;2022-10-16T01:15:53;5.73;;;2.87;;
7205;SDS011;3644;53.480;10.004;2022-10-16T01:18:31;5.90;;;3.07;;
7205;SDS011;3644;53.480;10.004;2022-10-16T01:21:04;4.00;;;3.60;;
7205;SDS011;3644;53.480;10.004;2022-10-16T01:23:38;3.13;;;2.90;;
7205;SDS011;3644;53.480;10.004;2022-10-16T01:29:09;3.30;;;3.00;;
7205;SDS011;3644;53.480;10.004;2022-10-16T01:31:42;5.30;;;3.50;;
7205;SDS011;3644;53.480;10.004;2022-10-16T01:34:15;3.70;;;3.37;;
7205;SDS011;3644;53.480;10.004;2022-10-16T01:36:49;2.93;;;2.73;;
7205;SDS011;3644;53.480;10.004;2022-10-16T01:39:21;6.03;;;2.53;;
7205;SDS011;3644;53.480;10.004;2022-10-16T01:41:51;3.63;;;2.60;;
7205;SDS011;3644;53.480;10.004;2022-10-16T01:44:25;4.57;;;2.73;;
7205;SDS011;3644;53.480;10.004;2022-10-16T01:46:54;3.03;;;2.33;;
7205;SDS011;3644;53.480;10.004;2022-10-16T01:49:21;4.57;;;3.17;;
7205;SDS011;3644;53.480;10.004;2022-10-16T01:51:51;2.63;;;2.40;;
7205;SDS011;3644;53.480;10.004;2022-10-16T01:54:20;3.37;;;2.43;;
7205;SDS011;3644;53.480;10.004;2022-10-16T01:56:48;2.53;;;2.33;;
7205;SDS011;3644;53.480;10.004;2022-10-16T01:59:16;5.43;;;2.90;;
7205;SDS011;3644;53.480;10.004;2022-10-16T02:01:48;4.60;;;2.57;;
7205;SDS011;3644;53.480;10.004;2022-10-16T02:04:29;6.57;;;2.57;;
7205;SDS011;3644;53.480;10.004;2022-10-16T02:06:57;2.57;;;2.37;;
7205;SDS011;3644;53.480;10.004;2022-10-16T02:09:23;4.83;;;2.60;;
7205;SDS011;3644;53.480;10.004;2022-10-16T02:11:49;3.87;;;2.40;;
7205;SDS011;3644;53.480;10.004;2022-10-16T02:14:17;7.30;;;2.90;;
7205;SDS011;3644;53.480;10.004;2022-10-16T02:16:44;3.10;;;2.73;;
7205;SDS011;3644;53.480;10.004;2022-10-16T02:19:12;3.33;;;2.30;;
7205;SDS011;3644;53.480;10.004;2022-10-16T02:21:41;8.37;;;2.40;;
7205;SDS011;3644;53.480;10.004;2022-10-16T02:27:06;1.90;;;1.77;;
7205;SDS011;3644;53.480;10.004;2022-10-16T02:29:55;2.87;;;2.00;;
7205;SDS011;3644;53.480;10.004;2022-10-16T02:32:33;2.83;;;1.87;;
7205;SDS011;3644;53.480;10.004;2022-10-16T02:35:00;3.77;;;2.40;;
7205;SDS011;3644;53.480;10.004;2022-10-16T02:37:27;2.60;;;1.97;;
7205;SDS011;3644;53.480;10.004;2022-10-16T02:39:53;5.23;;;2.37;;
7205;SDS011;3644;53.480;10.004;2022-10-16T02:42:20;3.43;;;1.80;;
7205;SDS011;3644;53.480;10.004;2022-10-16T02:44:52;1.80;;;1.70;;
7205;SDS011;3644;53.480;10.004;2022-10-16T02:47:17;6.90;;;2.40;;
7205;SDS011;3644;53.480;10.004;2022-10-16T02:49:43;4.57;;;2.10;;
7205;SDS011;3644;53.480;10.004;2022-10-16T02:52:09;2.70;;;2.07;;
7205;SDS011;3644;53.480;10.004;2022-10-16T02:54:34;8.50;;;2.00;;
7205;SDS011;3644;53.480;10.004;2022-10-16T02:56:59;3.80;;;1.70;;
7205;SDS011;3644;53.480;10.004;2022-10-16T02:59:25;1.50;;;1.40;;
7205;SDS011;3644;53.480;10.004;2022-10-16T03:01:50;2.10;;;1.90;;
7205;SDS011;3644;53.480;10.004;2022-10-16T03:04:16;6.50;;;2.00;;
7205;SDS011;3644;53.480;10.004;2022-10-16T03:06:41;3.83;;;2.10;;
7205;SDS011;3644;53.480;10.004;2022-10-16T03:09:07;4.63;;;2.00;;
7205;SDS011;3644;53.480;10.004;2022-10-16T03:11:32;2.90;;;1.43;;
7205;SDS011;3644;53.480;10.004;2022-10-16T03:13:58;2.20;;;1.60;;
7205;SDS011;3644;53.480;10.004;2022-10-16T03:16:23;2.97;;;1.67;;
7205;SDS011;3644;53.480;10.004;2022-10-16T03:18:49;6.50;;;2.00;;
7205;SDS011;3644;53.480;10.004;2022-10-16T03:21:15;2.80;;;1.93;;
7205;SDS011;3644;53.480;10.004;2022-10-16T03:23:40;1.87;;;1.77;;
7205;SDS011;3644;53.480;10.004;2022-10-16T03:26:06;1.87;;;1.73;;
7205;SDS011;3644;53.480;10.004;2022-10-16T03:28:31;4.43;;;1.80;;
7205;SDS011;3644;53.480;10.004;2022-10-16T03:30:57;5.40;;;1.60;;
7205;SDS011;3644;53.480;10.004;2022-10-16T03:33:22;2.93;;;1.87;;
7205;SDS011;3644;53.480;10.004;2022-10-16T03:35:52;5.03;;;1.90;;
7205;SDS011;3644;53.480;10.004;2022-10-16T03:38:18;2.50;;;1.90;;
7205;SDS011;3644;53.480;10.004;2022-10-16T03:40:44;3.70;;;1.27;;
7205;SDS011;3644;53.480;10.004;2022-10-16T03:43:09;3.83;;;1.97;;
7205;SDS011;3644;53.480;10.004;2022-10-16T03:45:35;7.90;;;2.40;;
7205;SDS011;3644;53.480;10.004;2022-10-16T03:48:00;4.20;;;1.97;;
7205;SDS011;3644;53.480;10.004;2022-10-16T03:50:27;11.10;;;2.23;;
7205;SDS011;3644;53.480;10.004;2022-10-16T03:52:53;4.73;;;1.80;;
7205;SDS011;3644;53.480;10.004;2022-10-16T03:55:18;3.30;;;1.90;;
7205;SDS011;3644;53.480;10.004;2022-10-16T03:57:44;6.10;;;2.27;;
7205;SDS011;3644;53.480;10.004;2022-10-16T04:00:09;2.07;;;1.77;;
7205;SDS011;3644;53.480;10.004;2022-10-16T04:02:35;1.80;;;1.70;;
7205;SDS011;3644;53.480;10.004;2022-10-16T04:05:01;3.13;;;2.53;;
7205;SDS011;3644;53.480;10.004;2022-10-16T04:07:27;9.90;;;2.03;;
7205;SDS011;3644;53.480;10.004;2022-10-16T04:09:52;5.90;;;1.87;;
7205;SDS011;3644;53.480;10.004;2022-10-16T04:12:18;2.17;;;1.80;;
7205;SDS011;3644;53.480;10.004;2022-10-16T04:14:43;2.03;;;1.73;;
7205;SDS011;3644;53.480;10.004;2022-10-16T04:17:09;2.67;;;1.60;;
7205;SDS011;3644;53.480;10.004;2022-10-16T04:19:34;7.63;;;1.97;;
7205;SDS011;3644;53.480;10.004;2022-10-16T04:22:00;2.53;;;1.60;;
7205;SDS011;3644;53.480;10.004;2022-10-16T04:24:25;3.60;;;1.93;;
7205;SDS011;3644;53.480;10.004;2022-10-16T04:26:51;2.33;;;1.40;;
7205;SDS011;3644;53.480;10.004;2022-10-16T04:29:16;23.03;;;1.90;;
7205;SDS011;3644;53.480;10.004;2022-10-16T04:31:42;2.50;;;1.53;;
7205;SDS011;3644;53.480;10.004;2022-10-16T04:34:07;1.90;;;1.80;;
7205;SDS011;3644;53.480;10.004;2022-10-16T04:36:33;3.50;;;1.80;;
7205;SDS011;3644;53.480;10.004;2022-10-16T04:38:58;2.00;;;1.77;;
7205;SDS011;3644;53.480;10.004;2022-10-16T04:41:24;3.17;;;1.80;;
7205;SDS011;3644;53.480;10.004;2022-10-16T04:43:49;4.60;;;2.20;;
7205;SDS011;3644;53.480;10.004;2022-10-16T04:46:15;2.37;;;1.63;;
7205;SDS011;3644;53.480;10.004;2022-10-16T04:48:40;4.73;;;1.93;;
7205;SDS011;3644;53.480;10.004;2022-10-16T04:51:06;4.13;;;2.07;;
7205;SDS011;3644;53.480;10.004;2022-10-16T04:53:31;5.93;;;2.20;;
7205;SDS011;3644;53.480;10.004;2022-10-16T04:55:58;6.57;;;2.37;;
7205;SDS011;3644;53.480;10.004;2022-10-16T04:58:23;4.60;;;2.40;;
7205;SDS011;3644;53.480;10.004;2022-10-16T05:00:49;2.47;;;2.27;;
7205;SDS011;3644;53.480;10.004;2022-10-16T05:03:14;3.93;;;2.50;;
7205;SDS011;3644;53.480;10.004;2022-10-16T05:05:43;6.93;;;2.53;;
7205;SDS011;3644;53.480;10.004;2022-10-16T05:08:10;3.00;;;2.00;;
7205;SDS011;3644;53.480;10.004;2022-10-16T05:10:40;6.83;;;2.53;;
7205;SDS011;3644;53.480;10.004;2022-10-16T05:13:07;3.23;;;1.97;;
7205;SDS011;3644;53.480;10.004;2022-10-16T05:15:33;7.33;;;2.50;;
7205;SDS011;3644;53.480;10.004;2022-10-16T05:17:58;3.03;;;2.17;;
7205;SDS011;3644;53.480;10.004;2022-10-16T05:20:24;6.83;;;2.17;;
7205;SDS011;3644;53.480;10.004;2022-10-16T05:22:49;4.43;;;1.97;;
7205;SDS011;3644;53.480;10.004;2022-10-16T05:25:15;2.93;;;2.03;;
7205;SDS011;3644;53.480;10.004;2022-10-16T05:27:41;3.37;;;1.70;;
7205;SDS011;3644;53.480;10.004;2022-10-16T05:30:06;6.10;;;2.13;;
7205;SDS011;3644;53.480;10.004;2022-10-16T05:32:32;2.10;;;1.77;;
7205;SDS011;3644;53.480;10.004;2022-10-16T05:34:58;6.10;;;2.70;;
7205;SDS011;3644;53.480;10.004;2022-10-16T05:37:24;3.40;;;1.70;;
7205;SDS011;3644;53.480;10.004;2022-10-16T05:39:51;3.67;;;2.27;;
7205;SDS011;3644;53.480;10.004;2022-10-16T05:42:17;5.63;;;2.03;;
7205;SDS011;3644;53.480;10.004;2022-10-16T05:44:43;2.37;;;2.17;;
7205;SDS011;3644;53.480;10.004;2022-10-16T05:47:08;2.87;;;2.57;;
7205;SDS011;3644;53.480;10.004;2022-10-16T05:49:35;2.40;;;1.70;;
7205;SDS011;3644;53.480;10.004;2022-10-16T05:52:01;6.87;;;2.03;;
7205;SDS011;3644;53.480;10.004;2022-10-16T05:54:26;2.73;;;1.53;;
7205;SDS011;3644;53.480;10.004;2022-10-16T05:56:52;4.10;;;2.77;;
7205;SDS011;3644;53.480;10.004;2022-10-16T05:59:17;2.53;;;2.00;;
7205;SDS011;3644;53.480;10.004;2022-10-16T06:01:43;4.80;;;3.23;;
7205;SDS011;3644;53.480;10.004;2022-10-16T06:04:09;4.50;;;2.10;;
7205;SDS011;3644;53.480;10.004;2022-10-16T06:06:35;2.63;;;2.30;;
7205;SDS011;3644;53.480;10.004;2022-10-16T06:09:01;2.60;;;2.37;;
7205;SDS011;3644;53.480;10.004;2022-10-16T06:11:28;6.30;;;2.17;;
7205;SDS011;3644;53.480;10.004;2022-10-16T06:13:56;2.70;;;2.00;;
7205;SDS011;3644;53.480;10.004;2022-10-16T06:16:23;3.40;;;2.10;;
7205;SDS011;3644;53.480;10.004;2022-10-16T06:18:50;3.70;;;1.83;;
7205;SDS011;3644;53.480;10.004;2022-10-16T06:21:18;2.87;;;2.37;;
7205;SDS011;3644;53.480;10.004;2022-10-16T06:23:45;2.70;;;2.50;;
7205;SDS011;3644;53.480;10.004;2022-10-16T06:26:12;5.10;;;2.33;;
7205;SDS011;3644;53.480;10.004;2022-10-16T06:28:39;6.53;;;2.77;;
7205;SDS011;3644;53.480;10.004;2022-10-16T06:31:06;7.93;;;2.73;;
7205;SDS011;3644;53.480;10.004;2022-10-16T06:33:33;4.83;;;2.83;;
7205;SDS011;3644;53.480;10.004;2022-10-16T06:36:03;3.57;;;2.57;;
7205;SDS011;3644;53.480;10.004;2022-10-16T06:38:30;13.93;;;2.87;;
7205;SDS011;3644;53.480;10.004;2022-10-16T06:40:56;4.20;;;2.40;;
7205;SDS011;3644;53.480;10.004;2022-10-16T06:43:22;3.33;;;2.07;;
7205;SDS011;3644;53.480;10.004;2022-10-16T06:45:51;5.37;;;3.43;;
7205;SDS011;3644;53.480;10.004;2022-10-16T06:48:21;2.70;;;2.30;;
7205;SDS011;3644;53.480;10.004;2022-10-16T06:51:01;3.87;;;2.70;;
7205;SDS011;3644;53.480;10.004;2022-10-16T06:53:32;3.03;;;2.60;;
7205;SDS011;3644;53.480;10.004;2022-10-16T06:56:08;3.03;;;2.70;;
7205;SDS011;3644;53.480;10.004;2022-10-16T06:58:41;6.30;;;2.67;;
7205;SDS011;3644;53.480;10.004;2022-10-16T07:01:08;6.23;;;3.17;;
7205;SDS011;3644;53.480;10.004;2022-10-16T07:03:38;4.93;;;2.73;;
7205;SDS011;3644;53.480;10.004;2022-10-16T07:06:05;6.17;;;3.10;;
7205;SDS011;3644;53.480;10.004;2022-10-16T07:08:32;3.37;;;2.40;;
7205;SDS011;3644;53.480;10.004;2022-10-16T07:11:03;2.77;;;2.57;;
7205;SDS011;3644;53.480;10.004;2022-10-16T07:13:34;3.77;;;3.40;;
7205;SDS011;3644;53.480;10.004;2022-10-16T07:16:04;4.17;;;3.37;;
7205;SDS011;3644;53.480;10.004;2022-10-16T07:18:34;4.70;;;3.30;;
7205;SDS011;3644;53.480;10.004;2022-10-16T07:21:04;7.13;;;3.10;;
7205;SDS011;3644;53.480;10.004;2022-10-16T07:23:30;5.10;;;2.90;;
7205;SDS011;3644;53.480;10.004;2022-10-16T07:25:55;5.77;;;2.77;;
7205;SDS011;3644;53.480;10.004;2022-10-16T07:28:21;4.00;;;2.90;;
7205;SDS011;3644;53.480;10.004;2022-10-16T07:30:46;6.70;;;2.87;;
7205;SDS011;3644;53.480;10.004;2022-10-16T07:33:12;9.80;;;3.20;;
7205;SDS011;3644;53.480;10.004;2022-10-16T07:35:38;2.37;;;2.17;;
7205;SDS011;3644;53.480;10.004;2022-10-16T07:38:19;6.40;;;3.13;;
7205;SDS011;3644;53.480;10.004;2022-10-16T07:40:45;4.70;;;3.87;;
7205;SDS011;3644;53.480;10.004;2022-10-16T07:43:11;6.23;;;4.17;;
7205;SDS011;3644;53.480;10.004;2022-10-16T07:45:37;6.20;;;3.67;;
7205;SDS011;3644;53.480;10.004;2022-10-16T07:48:11;11.13;;;6.00;;
7205;SDS011;3644;53.480;10.004;2022-10-16T07:50:36;22.43;;;5.00;;
7205;SDS011;3644;53.480;10.004;2022-10-16T07:53:02;10.87;;;4.87;;
7205;SDS011;3644;53.480;10.004;2022-10-16T07:55:28;8.57;;;5.47;;
7205;SDS011;3644;53.480;10.004;2022-10-16T07:57:54;6.47;;;4.97;;
7205;SDS011;3644;53.480;10.004;2022-10-16T08:00:20;15.77;;;3.60;;
7205;SDS011;3644;53.480;10.004;2022-10-16T08:02:45;4.87;;;2.90;;
7205;SDS011;3644;53.480;10.004;2022-10-16T08:05:11;8.00;;;3.00;;
7205;SDS011;3644;53.480;10.004;2022-10-16T08:07:36;5.63;;;3.00;;
7205;SDS011;3644;53.480;10.004;2022-10-16T08:10:02;8.23;;;3.90;;
7205;SDS011;3644;53.480;10.004;2022-10-16T08:12:28;6.13;;;3.20;;
7205;SDS011;3644;53.480;10.004;2022-10-16T08:14:53;4.20;;;2.87;;
7205;SDS011;3644;53.480;10.004;2022-10-16T08:17:18;4.20;;;3.00;;
7205;SDS011;3644;53.480;10.004;2022-10-16T08:19:45;4.20;;;3.80;;
7205;SDS011;3644;53.480;10.004;2022-10-16T08:22:12;2.63;;;2.27;;
7205;SDS011;3644;53.480;10.004;2022-10-16T08:24:38;5.10;;;2.93;;
7205;SDS011;3644;53.480;10.004;2022-10-16T08:27:03;7.73;;;2.43;;
7205;SDS011;3644;53.480;10.004;2022-10-16T08:29:29;6.90;;;2.80;;
7205;SDS011;3644;53.480;10.004;2022-10-16T08:31:54;2.63;;;2.40;;
7205;SDS011;3644;53.480;10.004;2022-10-16T08:34:20;5.97;;;2.40;;
7205;SDS011;3644;53.480;10.004;2022-10-16T08:36:45;2.27;;;2.07;;
7205;SDS011;3644;53.480;10.004;2022-10-16T08:39:11;5.47;;;2.73;;
7205;SDS011;3644;53.480;10.004;2022-10-16T08:47:25;8.33;;;2.60;;
7205;SDS011;3644;53.480;10.004;2022-10-16T08:50:07;3.40;;;2.53;;
7205;SDS011;3644;53.480;10.004;2022-10-16T08:52:35;2.70;;;1.93;;
7205;SDS011;3644;53.480;10.004;2022-10-16T08:55:05;3.00;;;2.20;;
7205;SDS011;3644;53.480;10.004;2022-10-16T08:57:31;3.20;;;2.90;;
7205;SDS011;3644;53.480;10.004;2022-10-16T08:59:57;2.43;;;2.23;;
7205;SDS011;3644;53.480;10.004;2022-10-16T09:02:37;2.50;;;1.70;;
7205;SDS011;3644;53.480;10.004;2022-10-16T09:05:29;3.00;;;2.37;;
7205;SDS011;3644;53.480;10.004;2022-10-16T09:08:14;4.13;;;1.93;;
7205;SDS011;3644;53.480;10.004;2022-10-16T09:17:16;1.80;;;1.70;;
7205;SDS011;3644;53.480;10.004;2022-10-16T09:20:06;2.30;;;2.07;;
7205;SDS011;3644;53.480;10.004;2022-10-16T09:22:42;3.47;;;1.60;;
7205;SDS011;3644;53.480;10.004;2022-10-16T09:25:12;2.17;;;1.63;;
7205;SDS011;3644;53.480;10.004;2022-10-16T09:27:40;5.70;;;1.80;;
7205;SDS011;3644;53.480;10.004;2022-10-16T09:32:43;11.40;;;1.60;;
7205;SDS011;3644;53.480;10.004;2022-10-16T09:35:16;1.83;;;1.30;;
7205;SDS011;3644;53.480;10.004;2022-10-16T09:37:48;4.10;;;1.63;;
7205;SDS011;3644;53.480;10.004;2022-10-16T09:40:26;3.77;;;1.40;;
7205;SDS011;3644;53.480;10.004;2022-10-16T09:42:57;4.63;;;1.60;;
7205;SDS011;3644;53.480;10.004;2022-10-16T09:48:37;2.93;;;1.30;;
7205;SDS011;3644;53.480;10.004;2022-10-16T09:51:41;3.83;;;1.30;;
7205;SDS011;3644;53.480;10.004;2022-10-16T09:54:10;2.60;;;1.27;;
7205;SDS011;3644;53.480;10.004;2022-10-16T09:56:41;2.93;;;1.30;;
7205;SDS011;3644;53.480;10.004;2022-10-16T10:01:39;2.63;;;1.37;;
7205;SDS011;3644;53.480;10.004;2022-10-16T10:04:07;2.50;;;1.37;;
7205;SDS011;3644;53.480;10.004;2022-10-16T10:06:40;2.50;;;1.17;;
7205;SDS011;3644;53.480;10.004;2022-10-16T10:09:16;2.80;;;1.60;;
7205;SDS011;3644;53.480;10.004;2022-10-16T10:17:07;2.90;;;1.60;;
7205;SDS011;3644;53.480;10.004;2022-10-16T10:19:50;1.53;;;0.90;;
7205;SDS011;3644;53.480;10.004;2022-10-16T10:27:39;1.67;;;1.23;;
7205;SDS011;3644;53.480;10.004;2022-10-16T10:32:54;3.10;;;1.23;;
7205;SDS011;3644;53.480;10.004;2022-10-16T10:38:49;3.87;;;0.87;;
7205;SDS011;3644;53.480;10.004;2022-10-16T10:43:57;4.63;;;1.00;;
7205;SDS011;3644;53.480;10.004;2022-10-16T10:46:44;1.53;;;1.07;;
7205;SDS011;3644;53.480;10.004;2022-10-16T10:52:19;2.10;;;0.93;;
7205;SDS011;3644;53.480;10.004;2022-10-16T10:58:08;37.67;;;9.17;;
7205;SDS011;3644;53.480;10.004;2022-10-16T11:04:04;2.10;;;1.40;;
7205;SDS011;3644;53.480;10.004;2022-10-16T11:06:55;1.97;;;1.00;;
7205;SDS011;3644;53.480;10.004;2022-10-16T11:09:48;2.27;;;1.17;;
7205;SDS011;3644;53.480;10.004;2022-10-16T11:12:19;1.20;;;1.10;;
7205;SDS011;3644;53.480;10.004;2022-10-16T11:17:30;5.10;;;1.00;;
7205;SDS011;3644;53.480;10.004;2022-10-16T11:20:23;4.90;;;1.17;;
7205;SDS011;3644;53.480;10.004;2022-10-16T11:25:36;0.97;;;0.93;;
7205;SDS011;3644;53.480;10.004;2022-10-16T11:28:09;3.50;;;1.57;;
7205;SDS011;3644;53.480;10.004;2022-10-16T11:30:52;2.83;;;0.80;;
7205;SDS011;3644;53.480;10.004;2022-10-16T11:33:40;6.63;;;1.13;;
7205;SDS011;3644;53.480;10.004;2022-10-16T11:36:17;1.00;;;0.80;;
7205;SDS011;3644;53.480;10.004;2022-10-16T11:38:50;1.40;;;1.17;;
7205;SDS011;3644;53.480;10.004;2022-10-16T11:41:49;1.17;;;0.87;;
7205;SDS011;3644;53.480;10.004;2022-10-16T11:44:27;2.07;;;1.27;;
7205;SDS011;3644;53.480;10.004;2022-10-16T11:49:30;1.20;;;0.90;;
7205;SDS011;3644;53.480;10.004;2022-10-16T11:54:37;2.77;;;1.23;;
7205;SDS011;3644;53.480;10.004;2022-10-16T11:57:17;3.70;;;0.90;;
7205;SDS011;3644;53.480;10.004;2022-10-16T11:59:59;1.70;;;0.90;;
7205;SDS011;3644;53.480;10.004;2022-10-16T12:02:34;3.03;;;1.23;;
7205;SDS011;3644;53.480;10.004;2022-10-16T12:10:36;4.10;;;1.47;;
7205;SDS011;3644;53.480;10.004;2022-10-16T12:13:04;5.57;;;1.63;;
7205;SDS011;3644;53.480;10.004;2022-10-16T12:15:49;2.00;;;1.00;;
7205;SDS011;3644;53.480;10.004;2022-10-16T12:18:20;2.60;;;1.30;;
7205;SDS011;3644;53.480;10.004;2022-10-16T12:20:54;1.40;;;0.97;;
7205;SDS011;3644;53.480;10.004;2022-10-16T12:23:33;5.70;;;0.90;;
7205;SDS011;3644;53.480;10.004;2022-10-16T12:26:03;4.47;;;1.30;;
7205;SDS011;3644;53.480;10.004;2022-10-16T12:28:30;1.57;;;0.90;;
7205;SDS011;3644;53.480;10.004;2022-10-16T12:31:01;1.03;;;0.90;;
7205;SDS011;3644;53.480;10.004;2022-10-16T12:33:30;6.83;;;1.00;;
7205;SDS011;3644;53.480;10.004;2022-10-16T12:35:59;2.70;;;1.43;;
7205;SDS011;3644;53.480;10.004;2022-10-16T12:38:27;4.93;;;0.80;;
7205;SDS011;3644;53.480;10.004;2022-10-16T12:41:05;2.60;;;1.17;;
7205;SDS011;3644;53.480;10.004;2022-10-16T12:48:39;4.50;;;1.40;;
7205;SDS011;3644;53.480;10.004;2022-10-16T12:51:10;3.07;;;0.97;;
7205;SDS011;3644;53.480;10.004;2022-10-16T13:02:37;1.20;;;0.90;;
7205;SDS011;3644;53.480;10.004;2022-10-16T13:05:21;4.33;;;1.50;;
7205;SDS011;3644;53.480;10.004;2022-10-16T13:13:15;4.20;;;1.10;;
7205;SDS011;3644;53.480;10.004;2022-10-16T13:16:04;3.37;;;1.20;;
7205;SDS011;3644;53.480;10.004;2022-10-16T13:22:05;3.13;;;1.60;;
7205;SDS011;3644;53.480;10.004;2022-10-16T13:27:46;3.23;;;0.90;;
7205;SDS011;3644;53.480;10.004;2022-10-16T13:30:23;4.70;;;1.20;;
7205;SDS011;3644;53.480;10.004;2022-10-16T13:32:59;1.20;;;1.00;;
7205;SDS011;3644;53.480;10.004;2022-10-16T13:35:27;3.43;;;1.00;;
7205;SDS011;3644;53.480;10.004;2022-10-16T13:38:04;1.03;;;1.03;;
7205;SDS011;3644;53.480;10.004;2022-10-16T13:40:36;3.70;;;1.63;;
7205;SDS011;3644;53.480;10.004;2022-10-16T13:43:02;3.30;;;1.03;;
7205;SDS011;3644;53.480;10.004;2022-10-16T13:45:27;8.17;;;1.70;;
7205;SDS011;3644;53.480;10.004;2022-10-16T13:48:06;1.23;;;1.00;;
7205;SDS011;3644;53.480;10.004;2022-10-16T13:50:37;2.10;;;1.17;;
7205;SDS011;3644;53.480;10.004;2022-10-16T13:53:03;3.23;;;1.17;;
7205;SDS011;3644;53.480;10.004;2022-10-16T13:55:38;9.03;;;1.77;;
7205;SDS011;3644;53.480;10.004;2022-10-16T13:58:07;9.50;;;1.70;;
7205;SDS011;3644;53.480;10.004;2022-10-16T14:00:37;3.13;;;1.27;;
7205;SDS011;3644;53.480;10.004;2022-10-16T14:03:06;3.80;;;1.57;;
7205;SDS011;3644;53.480;10.004;2022-10-16T14:05:48;5.87;;;1.53;;
7205;SDS011;3644;53.480;10.004;2022-10-16T14:08:19;3.20;;;1.40;;
7205;SDS011;3644;53.480;10.004;2022-10-16T14:10:47;4.77;;;1.53;;
7205;SDS011;3644;53.480;10.004;2022-10-16T14:13:16;4.93;;;1.70;;
7205;SDS011;3644;53.480;10.004;2022-10-16T14:15:46;3.80;;;1.37;;
7205;SDS011;3644;53.480;10.004;2022-10-16T14:18:18;7.03;;;1.87;;
7205;SDS011;3644;53.480;10.004;2022-10-16T14:20:47;2.83;;;1.23;;
7205;SDS011;3644;53.480;10.004;2022-10-16T14:23:21;1.57;;;1.03;;
7205;SDS011;3644;53.480;10.004;2022-10-16T14:26:11;2.93;;;1.50;;
7205;SDS011;3644;53.480;10.004;2022-10-16T14:28:39;8.17;;;1.63;;
7205;SDS011;3644;53.480;10.004;2022-10-16T14:33:52;4.40;;;1.17;;
7205;SDS011;3644;53.480;10.004;2022-10-16T14:36:18;3.17;;;1.60;;
7205;SDS011;3644;53.480;10.004;2022-10-16T14:39:05;1.30;;;1.20;;
7205;SDS011;3644;53.480;10.004;2022-10-16T14:41:45;6.87;;;1.57;;
7205;SDS011;3644;53.480;10.004;2022-10-16T14:44:13;5.20;;;1.47;;
7205;SDS011;3644;53.480;10.004;2022-10-16T14:46:40;8.70;;;2.30;;
7205;SDS011;3644;53.480;10.004;2022-10-16T14:51:36;3.90;;;1.20;;
7205;SDS011;3644;53.480;10.004;2022-10-16T14:54:03;6.63;;;1.40;;
7205;SDS011;3644;53.480;10.004;2022-10-16T14:56:29;3.03;;;1.20;;
7205;SDS011;3644;53.480;10.004;2022-10-16T14:59:13;4.90;;;1.50;;
7205;SDS011;3644;53.480;10.004;2022-10-16T15:01:42;1.60;;;1.20;;
7205;SDS011;3644;53.480;10.004;2022-10-16T15:04:09;5.03;;;1.40;;
7205;SDS011;3644;53.480;10.004;2022-10-16T15:06:37;2.10;;;1.30;;
7205;SDS011;3644;53.480;10.004;2022-10-16T15:09:02;3.47;;;1.97;;
7205;SDS011;3644;53.480;10.004;2022-10-16T15:11:28;1.33;;;1.10;;
7205;SDS011;3644;53.480;10.004;2022-10-16T15:13:56;5.50;;;1.60;;
7205;SDS011;3644;53.480;10.004;2022-10-16T15:16:21;3.90;;;1.17;;
7205;SDS011;3644;53.480;10.004;2022-10-16T15:18:46;5.80;;;1.20;;
7205;SDS011;3644;53.480;10.004;2022-10-16T15:21:17;3.50;;;1.50;;
7205;SDS011;3644;53.480;10.004;2022-10-16T15:23:55;7.57;;;1.47;;
7205;SDS011;3644;53.480;10.004;2022-10-16T15:26:22;1.80;;;1.10;;
7205;SDS011;3644;53.480;10.004;2022-10-16T15:28:48;1.40;;;1.30;;
7205;SDS011;3644;53.480;10.004;2022-10-16T15:31:14;4.20;;;1.30;;
7205;SDS011;3644;53.480;10.004;2022-10-16T15:33:39;4.80;;;1.20;;
7205;SDS011;3644;53.480;10.004;2022-10-16T15:36:05;6.93;;;1.20;;
7205;SDS011;3644;53.480;10.004;2022-10-16T15:38:31;1.93;;;1.20;;
7205;SDS011;3644;53.480;10.004;2022-10-16T15:40:56;2.40;;;1.43;;
7205;SDS011;3644;53.480;10.004;2022-10-16T15:43:22;4.77;;;1.57;;
7205;SDS011;3644;53.480;10.004;2022-10-16T15:45:57;1.50;;;1.40;;
7205;SDS011;3644;53.480;10.004;2022-10-16T15:48:29;6.03;;;1.30;;
7205;SDS011;3644;53.480;10.004;2022-10-16T15:50:55;3.27;;;1.60;;
7205;SDS011;3644;53.480;10.004;2022-10-16T15:53:20;8.63;;;1.60;;
7205;SDS011;3644;53.480;10.004;2022-10-16T15:55:46;8.03;;;3.60;;
7205;SDS011;3644;53.480;10.004;2022-10-16T15:58:12;8.20;;;1.83;;
7205;SDS011;3644;53.480;10.004;2022-10-16T16:00:37;7.13;;;1.67;;
7205;SDS011;3644;53.480;10.004;2022-10-16T16:03:03;3.80;;;1.70;;
7205;SDS011;3644;53.480;10.004;2022-10-16T16:05:29;5.53;;;2.20;;
7205;SDS011;3644;53.480;10.004;2022-10-16T16:07:54;2.10;;;1.30;;
7205;SDS011;3644;53.480;10.004;2022-10-16T16:10:21;4.40;;;1.63;;
7205;SDS011;3644;53.480;10.004;2022-10-16T16:12:47;3.60;;;1.20;;
7205;SDS011;3644;53.480;10.004;2022-10-16T16:15:16;2.80;;;1.60;;
7205;SDS011;3644;53.480;10.004;2022-10-16T16:17:43;1.50;;;1.40;;
7205;SDS011;3644;53.480;10.004;2022-10-16T16:20:09;7.03;;;1.83;;
7205;SDS011;3644;53.480;10.004;2022-10-16T16:22:35;8.53;;;1.90;;
7205;SDS011;3644;53.480;10.004;2022-10-16T16:25:01;2.77;;;1.43;;
7205;SDS011;3644;53.480;10.004;2022-10-16T16:27:26;6.67;;;2.10;;
7205;SDS011;3644;53.480;10.004;2022-10-16T16:29:54;3.10;;;1.77;;
7205;SDS011;3644;53.480;10.004;2022-10-16T16:32:20;3.57;;;2.60;;
7205;SDS011;3644;53.480;10.004;2022-10-16T16:34:46;6.87;;;2.73;;
7205;SDS011;3644;53.480;10.004;2022-10-16T16:37:12;3.87;;;2.30;;
7205;SDS011;3644;53.480;10.004;2022-10-16T16:39:37;6.80;;;3.30;;
7205;SDS011;3644;53.480;10.004;2022-10-16T16:42:03;12.80;;;4.00;;
7205;SDS011;3644;53.480;10.004;2022-10-16T16:44:31;6.97;;;5.10;;
7205;SDS011;3644;53.480;10.004;2022-10-16T16:46:56;11.80;;;5.63;;
7205;SDS011;3644;53.480;10.004;2022-10-16T16:49:22;11.47;;;7.20;;
7205;SDS011;3644;53.480;10.004;2022-10-16T16:51:48;11.73;;;7.03;;
7205;SDS011;3644;53.480;10.004;2022-10-16T16:54:13;11.20;;;7.17;;
7205;SDS011;3644;53.480;10.004;2022-10-16T16:56:39;10.37;;;6.40;;
7205;SDS011;3644;53.480;10.004;2022-10-16T16:59:10;11.87;;;6.20;;
7205;SDS011;3644;53.480;10.004;2022-10-16T17:01:40;11.73;;;7.03;;